Abilene Regional Airport
KABI : rendu visible

Aérodrome :











RETROUVEZ-NOUS SUR...

 
LOGIN :

S'inscrire | Disclaimer

   EN    FR    IT 

 









Légende :    VFR   VFR Marginal   IFR   IFR Intensif   IFR Très Intensif
Visi : 
Plafond : 
>= 8 km
>= 3000ft
5 à 8 km
1000 à 3000 ft
1500m à 5 km
500 à 1000 ft
800 à 1500m
200 à 500 ft
< 800m
< 200 ft
Symboles :   Orages  Brouillard  Fortes neiges  Fortes précipitations  Vent > 20 kt






- Altitude de l'aérodrome : 1791 ft


KABI - Abilene Regional

DERNIER METAR :
  • 232152Z 36010KT 10SM FEW080 14/00 A3005 RMK AO2 SLP171 T01440000

METARs EXPIRÉS :
  • 232052Z 01009KT 10SM BKN080 15/01 A3006 RMK AO2 SLP171 T01500006 56017
  • 231952Z 33010KT 10SM SCT085 13/03 A3007 RMK AO2 SLP176 T01330028

TAF KABI
Valide du 23 à 18h jusqu'au 24 à 18h UTC


231720Z 2318/2418 36011KT P6SM SCT250
FM240100 00000KT P6SM FEW250



MET'MAP, la Météo Aéronautique d'un coup d'oeil ! - Copyright ORBIFLY Décembre 2007 - Disclaimer

ORBIFLY MET'MAP TEAM :

Programmation & Développement : Alexandra Zaïnal
Sur une idée originale de : Baudouin d'Aumeries
Assistance à la programmation : Marc-Olivier Méhu
Soutien technique & logistique : Manuel Goepfert

Contact : metmap@orbifly.com




SOURCES & CREDITS :

   NOAA       Earth
Advisory